Terminal Aerodrome Forecast
Issued by NWS Norman, OK

Home | Current Version | Previous Version | Text Only | Print | Product List | Glossary On
Versions: 1 2 3 4 5 6 7 8 9 10 11 12 13 14 15 16 17 18 19 20 21 22 23 24 25 26 27 28 29 30
000
FTUS44 KOUN 231358 AAA
TAFSPS
TAF AMD
KSPS 231358Z 2314/2412 04008KT P6SM SCT009 BKN070
      TEMPO 2314/2316 BKN009 BKN070
     FM231900 06010KT P6SM BKN040
     FM232100 07009KT P6SM SCT040 SCT250=

USA.gov is the U.S. government's official web portal to all federal, state and local government web resources and services.